createdAt,value
2023-04-01T00:02:07.175Z,77.61
2023-04-01T00:04:35.172Z,77.54
2023-04-01T00:07:03.278Z,77.19
2023-04-01T00:09:31.562Z,77.20
2023-04-01T00:11:59.446Z,76.93
2023-04-01T00:14:27.463Z,76.85
2023-04-01T00:16:56.936Z,76.64
2023-04-01T00:19:24.875Z,76.50
2023-04-01T00:21:53.266Z,76.46
2023-04-01T00:24:21.455Z,76.63
2023-04-01T00:26:49.874Z,76.67
2023-04-01T00:29:17.893Z,76.38
2023-04-01T00:31:45.827Z,76.77
2023-04-01T00:34:15.606Z,76.63
2023-04-01T00:36:43.361Z,77.08
2023-04-01T00:39:11.322Z,77.23
2023-04-01T00:41:39.205Z,77.46
2023-04-01T00:44:21.405Z,77.33
2023-04-01T00:46:49.211Z,77.59
2023-04-01T00:49:20.833Z,78.09
2023-04-01T00:51:51.068Z,77.97
2023-04-01T00:54:21.497Z,78.07
2023-04-01T00:56:50.894Z,78.57
2023-04-01T00:59:23.381Z,78.71
2023-04-01T01:01:51.416Z,78.80
2023-04-01T01:04:26.378Z,79.32
2023-04-01T01:07:01.203Z,79.29
2023-04-01T01:09:36.045Z,79.26
2023-04-01T01:12:09.989Z,79.39
2023-04-01T01:14:46.628Z,79.77
2023-04-01T01:17:17.047Z,79.52
2023-04-01T01:19:59.443Z,79.60
2023-04-01T01:22:36.786Z,79.53
2023-04-01T01:25:18.930Z,79.55
2023-04-01T01:27:53.772Z,79.41
2023-04-01T01:30:37.536Z,79.14
2023-04-01T01:33:41.018Z,78.82
2023-04-01T01:36:12.580Z,78.74
2023-04-01T01:38:40.777Z,78.94
2023-04-01T01:41:09.433Z,78.41
2023-04-01T01:43:39.759Z,78.27
2023-04-01T01:46:11.448Z,78.25
2023-04-01T01:48:39.694Z,78.38
2023-04-01T01:51:08.478Z,78.34
2023-04-01T01:53:37.939Z,78.34
2023-04-01T01:56:06.961Z,78.30
2023-04-01T01:58:41.475Z,77.70
2023-04-01T02:01:12.604Z,78.07
2023-04-01T02:03:42.077Z,78.00
2023-04-01T02:06:13.238Z,77.76
2023-04-01T02:08:45.829Z,77.74
2023-04-01T02:11:15.443Z,77.71
2023-04-01T02:13:46.196Z,77.01
2023-04-01T02:16:15.940Z,77.42
2023-04-01T02:18:44.833Z,77.23
2023-04-01T02:21:13.204Z,77.19
2023-04-01T02:23:42.731Z,77.05
2023-04-01T02:26:11.680Z,76.89
2023-04-01T02:28:40.481Z,77.03
2023-04-01T02:31:09.652Z,77.29
2023-04-01T02:33:37.840Z,76.95
2023-04-01T02:36:06.140Z,77.28
2023-04-01T02:38:34.223Z,77.58
2023-04-01T02:41:06.239Z,77.50
2023-04-01T02:43:34.159Z,77.80
2023-04-01T02:46:02.800Z,77.92
2023-04-01T02:48:30.864Z,77.89
2023-04-01T02:50:58.839Z,78.20
2023-04-01T02:53:26.681Z,78.19
2023-04-01T02:55:54.500Z,78.43
2023-04-01T02:58:23.685Z,78.33
2023-04-01T03:00:51.505Z,78.29
2023-04-01T03:03:19.459Z,78.55
2023-04-01T03:05:47.278Z,79.07
2023-04-01T03:08:15.064Z,78.97
2023-04-01T03:10:43.029Z,79.34
2023-04-01T03:13:11.065Z,79.40
2023-04-01T03:15:40.307Z,79.74
2023-04-01T03:18:08.285Z,79.99
2023-04-01T03:20:36.081Z,80.03
2023-04-01T03:23:03.972Z,80.42
2023-04-01T03:25:40.806Z,80.69
2023-04-01T03:28:08.584Z,80.50
2023-04-01T03:30:36.537Z,80.63
2023-04-01T03:33:05.798Z,80.80
2023-04-01T03:35:33.890Z,80.80
2023-04-01T03:38:01.855Z,80.73
2023-04-01T03:40:29.689Z,80.61
2023-04-01T03:42:57.702Z,80.70
2023-04-01T03:45:25.572Z,80.96
2023-04-01T03:47:53.336Z,80.75
2023-04-01T03:50:22.663Z,80.95
2023-04-01T03:52:50.451Z,80.89
2023-04-01T03:55:19.060Z,81.12
2023-04-01T03:57:46.869Z,80.91
2023-04-01T04:00:15.142Z,81.05
2023-04-01T04:02:42.989Z,81.06
2023-04-01T04:05:10.791Z,80.99
2023-04-01T04:07:39.988Z,81.16
2023-04-01T04:10:09.124Z,81.28
2023-04-01T04:12:36.967Z,81.25
2023-04-01T04:15:05.264Z,81.11
2023-04-01T04:17:33.084Z,81.48
2023-04-01T04:20:00.933Z,81.48
2023-04-01T04:22:28.913Z,81.39
2023-04-01T04:24:58.184Z,81.38
2023-04-01T04:27:26.124Z,81.63
2023-04-01T04:29:53.920Z,81.72
2023-04-01T04:32:21.730Z,81.81
2023-04-01T04:34:49.484Z,81.65
2023-04-01T04:37:17.288Z,81.94
2023-04-01T04:39:45.067Z,81.97
2023-04-01T04:42:14.213Z,82.12
2023-04-01T04:44:42.023Z,82.16
2023-04-01T04:47:09.906Z,82.19
2023-04-01T04:49:37.740Z,82.13
2023-04-01T04:52:05.572Z,82.17
2023-04-01T04:54:33.382Z,82.12
2023-04-01T04:57:01.274Z,82.18
2023-04-01T04:59:30.407Z,82.41
2023-04-01T05:01:58.204Z,82.09
2023-04-01T05:04:26.166Z,82.58
2023-04-01T05:06:53.968Z,82.38
2023-04-01T05:09:21.860Z,82.17
2023-04-01T05:11:49.663Z,82.49
2023-04-01T05:14:18.290Z,82.42
2023-04-01T05:16:47.493Z,82.33
2023-04-01T05:19:15.343Z,82.50
2023-04-01T05:21:43.095Z,82.40
2023-04-01T05:24:11.292Z,82.54
2023-04-01T05:26:39.176Z,81.99
2023-04-01T05:29:07.292Z,82.46
2023-04-01T05:31:35.056Z,82.45
2023-04-01T05:34:04.316Z,82.50
2023-04-01T05:36:32.089Z,82.24
2023-04-01T05:38:59.992Z,82.02
2023-04-01T05:41:27.742Z,81.80
2023-04-01T05:43:55.901Z,81.63
2023-04-01T05:46:23.682Z,81.55
2023-04-01T05:48:51.522Z,81.43
2023-04-01T05:51:20.639Z,81.31
2023-04-01T05:53:48.503Z,81.01
2023-04-01T05:56:16.425Z,80.98
2023-04-01T05:58:44.246Z,81.04
2023-04-01T06:01:16.312Z,81.04
2023-04-01T06:03:44.757Z,81.13
2023-04-01T06:06:16.688Z,80.92
2023-04-01T06:08:46.021Z,80.98
2023-04-01T06:11:24.755Z,80.87
2023-04-01T06:14:12.524Z,80.78
2023-04-01T06:16:51.598Z,80.75
2023-04-01T06:19:28.761Z,80.82
2023-04-01T06:22:16.434Z,80.99
2023-04-01T06:24:57.884Z,80.79
2023-04-01T06:27:37.317Z,81.24
2023-04-01T06:30:12.996Z,81.13
2023-04-01T06:32:56.231Z,81.24
2023-04-01T06:35:38.972Z,81.22
2023-04-01T06:38:42.445Z,81.25
2023-04-01T06:41:26.284Z,81.30
2023-04-01T06:44:00.782Z,81.60
2023-04-01T06:46:37.212Z,81.85
2023-04-01T06:49:15.278Z,82.19
2023-04-01T06:51:50.492Z,82.42
2023-04-01T06:54:21.030Z,82.77
2023-04-01T06:56:53.026Z,83.11
2023-04-01T06:59:23.118Z,83.07
2023-04-01T07:01:53.377Z,83.46
2023-04-01T07:04:23.335Z,83.71
2023-04-01T07:06:54.443Z,83.64
2023-04-01T07:09:25.262Z,83.41
2023-04-01T07:11:56.005Z,84.25
2023-04-01T07:14:26.821Z,84.33
2023-04-01T07:16:59.146Z,84.45
2023-04-01T07:19:31.568Z,84.71
2023-04-01T07:22:03.030Z,84.58
2023-04-01T07:24:34.862Z,84.58
2023-04-01T07:27:04.142Z,84.62
2023-04-01T07:29:31.954Z,84.78
2023-04-01T07:32:11.839Z,84.58
2023-04-01T07:34:47.071Z,85.13
2023-04-01T07:37:16.750Z,84.97
2023-04-01T07:39:49.994Z,85.21
2023-04-01T07:42:26.382Z,85.19
2023-04-01T07:44:59.260Z,85.09
2023-04-01T07:47:42.676Z,85.53
2023-04-01T07:50:18.660Z,85.40
2023-04-01T07:52:51.408Z,85.50
2023-04-01T07:55:23.349Z,85.71
2023-04-01T07:57:57.360Z,85.45
2023-04-01T08:00:29.534Z,85.41
2023-04-01T08:03:29.161Z,85.40
2023-04-01T08:05:59.623Z,85.87
2023-04-01T08:08:34.855Z,85.78
2023-04-01T08:11:08.466Z,85.98
2023-04-01T08:13:42.142Z,85.90
2023-04-01T08:16:15.573Z,86.04
2023-04-01T08:18:48.657Z,86.07
2023-04-01T08:21:19.970Z,86.09
2023-04-01T08:23:49.901Z,85.93
2023-04-01T08:26:24.338Z,86.39
2023-04-01T08:28:56.358Z,86.54
2023-04-01T08:31:28.672Z,86.58
2023-04-01T08:33:56.929Z,86.50
2023-04-01T08:36:27.297Z,86.74
2023-04-01T08:38:57.298Z,87.04
2023-04-01T08:41:42.672Z,86.87
2023-04-01T08:44:21.520Z,86.87
2023-04-01T08:47:12.672Z,86.79
2023-04-01T08:50:11.529Z,87.23
2023-04-01T08:52:40.028Z,86.91
2023-04-01T08:55:40.063Z,87.13
2023-04-01T08:58:39.415Z,87.50
2023-04-01T09:01:17.084Z,87.53
2023-04-01T09:04:04.551Z,87.53
2023-04-01T09:06:37.813Z,87.68
2023-04-01T09:09:26.991Z,87.88
2023-04-01T09:12:18.000Z,88.01
2023-04-01T09:15:02.728Z,87.83
2023-04-01T09:17:52.414Z,88.05
2023-04-01T09:20:29.060Z,87.98
2023-04-01T09:23:13.183Z,87.82
2023-04-01T09:25:49.756Z,87.86
2023-04-01T09:28:21.183Z,88.24
2023-04-01T09:31:30.625Z,88.06
2023-04-01T09:34:19.742Z,87.86
2023-04-01T09:36:48.338Z,88.23
2023-04-01T09:39:41.577Z,87.69
2023-04-01T09:42:36.619Z,87.48
2023-04-01T09:45:09.265Z,87.14
2023-04-01T09:47:47.328Z,87.29
2023-04-01T09:50:26.983Z,87.49
2023-04-01T09:52:59.482Z,87.19
2023-04-01T09:56:01.637Z,86.92
2023-04-01T09:59:10.637Z,86.67
2023-04-01T10:02:09.896Z,86.88
2023-04-01T10:05:06.857Z,87.06
2023-04-01T10:07:53.674Z,87.03
2023-04-01T10:10:41.921Z,87.39
2023-04-01T10:13:42.965Z,87.22
2023-04-01T10:16:46.935Z,87.11
2023-04-01T10:19:37.757Z,87.47
2023-04-01T10:22:39.052Z,87.05
2023-04-01T10:25:30.024Z,86.58
2023-04-01T10:28:22.170Z,86.06
2023-04-01T10:31:25.107Z,85.66
2023-04-01T10:34:20.883Z,85.51
2023-04-01T10:36:59.020Z,85.59
2023-04-01T10:39:36.284Z,85.42
2023-04-01T10:42:43.023Z,85.76
2023-04-01T10:45:59.086Z,85.27
2023-04-01T10:49:04.763Z,85.22
2023-04-01T10:51:52.765Z,84.89
2023-04-01T10:54:23.585Z,84.16
2023-04-01T10:57:02.251Z,83.92
2023-04-01T11:00:07.648Z,83.67
2023-04-01T11:02:58.725Z,83.27
2023-04-01T11:05:53.430Z,82.98
2023-04-01T11:08:53.574Z,82.63
2023-04-01T11:11:57.794Z,82.30
2023-04-01T11:15:10.621Z,81.76
2023-04-01T11:18:03.056Z,82.11
2023-04-01T11:21:06.374Z,82.13
2023-04-01T11:24:04.527Z,81.33
2023-04-01T11:26:44.943Z,81.31
2023-04-01T11:29:38.934Z,81.45
2023-04-01T11:32:17.796Z,81.36
2023-04-01T11:34:58.425Z,81.83
2023-04-01T11:37:37.008Z,82.13
2023-04-01T11:40:13.428Z,81.06
2023-04-01T11:42:46.639Z,81.41
2023-04-01T11:45:23.293Z,81.82
2023-04-01T11:48:11.731Z,81.94
2023-04-01T11:50:50.771Z,81.97
2023-04-01T11:53:26.989Z,82.46
2023-04-01T11:56:01.369Z,82.46
2023-04-01T11:58:45.929Z,82.10
2023-04-01T12:01:25.023Z,81.84
2023-04-01T12:04:22.523Z,82.03
2023-04-01T12:06:56.160Z,82.83
2023-04-01T12:09:27.396Z,82.45
2023-04-01T12:12:06.409Z,82.41
2023-04-01T12:14:39.486Z,82.48
2023-04-01T12:17:12.998Z,81.94
2023-04-01T12:19:45.934Z,82.68
2023-04-01T12:22:35.737Z,82.61
2023-04-01T12:25:19.908Z,82.90
2023-04-01T12:27:55.374Z,83.34
2023-04-01T12:30:41.186Z,83.66
2023-04-01T12:33:21.201Z,84.33
2023-04-01T12:35:57.626Z,83.69
2023-04-01T12:38:34.090Z,84.12
2023-04-01T12:41:12.433Z,84.58
2023-04-01T12:44:08.003Z,84.00
2023-04-01T12:46:44.289Z,83.95
2023-04-01T12:49:23.158Z,84.49
2023-04-01T12:52:06.540Z,83.89
2023-04-01T12:55:10.565Z,83.01
2023-04-01T12:58:09.358Z,82.89
2023-04-01T13:01:01.118Z,82.17
2023-04-01T13:03:47.170Z,82.26
2023-04-01T13:06:47.043Z,82.00
2023-04-01T13:09:25.627Z,82.61
2023-04-01T13:12:09.217Z,82.63
2023-04-01T13:15:06.906Z,81.51
2023-04-01T13:17:39.380Z,82.27
2023-04-01T13:20:16.816Z,82.47
2023-04-01T13:22:54.110Z,82.69
2023-04-01T13:25:28.957Z,83.05
2023-04-01T13:28:02.465Z,83.77
2023-04-01T13:30:33.277Z,83.86
2023-04-01T13:33:05.472Z,84.15
2023-04-01T13:35:39.329Z,83.73
2023-04-01T13:38:17.743Z,83.54
2023-04-01T13:41:02.103Z,83.19
2023-04-01T13:43:35.012Z,83.96
2023-04-01T13:46:29.858Z,83.44
2023-04-01T13:49:09.373Z,83.46
2023-04-01T13:51:58.665Z,84.08
2023-04-01T13:55:05.910Z,83.79
2023-04-01T13:57:45.873Z,83.93
2023-04-01T14:00:25.016Z,83.61
2023-04-01T14:03:03.170Z,83.80
2023-04-01T14:05:43.933Z,83.75
2023-04-01T14:08:20.016Z,84.17
2023-04-01T14:10:53.801Z,84.13
2023-04-01T14:13:25.736Z,84.14
2023-04-01T14:16:06.001Z,83.29
2023-04-01T14:18:49.623Z,83.62
2023-04-01T14:21:24.078Z,83.75
2023-04-01T14:24:09.797Z,83.92
2023-04-01T14:27:09.090Z,82.98
2023-04-01T14:29:42.493Z,83.39
2023-04-01T14:32:18.928Z,83.57
2023-04-01T14:34:59.303Z,84.44
2023-04-01T14:38:02.229Z,84.22
2023-04-01T14:40:31.099Z,84.84
2023-04-01T14:43:12.564Z,84.44
2023-04-01T14:46:01.951Z,84.21
2023-04-01T14:48:34.525Z,84.70
2023-04-01T14:51:10.656Z,84.91
2023-04-01T14:53:42.723Z,84.78
2023-04-01T14:56:10.462Z,84.32
2023-04-01T14:58:46.673Z,83.95
2023-04-01T15:01:32.629Z,84.16
2023-04-01T15:04:12.067Z,84.06
2023-04-01T15:07:05.764Z,83.93
2023-04-01T15:09:40.047Z,84.26
2023-04-01T15:12:18.043Z,83.64
2023-04-01T15:15:19.079Z,83.46
2023-04-01T15:17:59.492Z,83.87
2023-04-01T15:20:38.478Z,84.26
2023-04-01T15:23:18.080Z,84.23
2023-04-01T15:26:06.475Z,84.68
2023-04-01T15:28:39.152Z,83.70
2023-04-01T15:31:12.735Z,84.27
2023-04-01T15:33:55.081Z,84.03
2023-04-01T15:36:32.254Z,84.38
2023-04-01T15:39:07.030Z,84.28
2023-04-01T15:41:42.382Z,84.49
2023-04-01T15:44:28.800Z,84.54
2023-04-01T15:46:57.317Z,84.69
2023-04-01T15:49:33.573Z,85.16
2023-04-01T15:52:08.909Z,84.84
2023-04-01T15:54:55.636Z,84.84
2023-04-01T15:57:29.629Z,85.40
2023-04-01T16:00:28.394Z,85.14
2023-04-01T16:03:15.720Z,84.69
2023-04-01T16:05:57.272Z,84.80
2023-04-01T16:08:43.345Z,84.67
2023-04-01T16:11:22.167Z,84.24
2023-04-01T16:13:58.041Z,84.49
2023-04-01T16:16:33.602Z,84.57
2023-04-01T16:19:18.411Z,84.98
2023-04-01T16:21:49.440Z,85.27
2023-04-01T16:24:24.631Z,85.12
2023-04-01T16:26:55.942Z,85.17
2023-04-01T16:29:29.986Z,85.36
2023-04-01T16:32:07.618Z,85.78
2023-04-01T16:34:38.983Z,85.57
2023-04-01T16:37:13.701Z,84.90
2023-04-01T16:39:47.705Z,85.72
2023-04-01T16:42:32.975Z,85.22
2023-04-01T16:45:08.785Z,85.64
2023-04-01T16:47:38.637Z,85.66
2023-04-01T16:50:09.517Z,86.04
2023-04-01T16:52:54.132Z,86.11
2023-04-01T16:55:24.632Z,85.71
2023-04-01T16:57:54.723Z,85.81
2023-04-01T17:00:27.745Z,85.52
2023-04-01T17:03:06.598Z,86.07
2023-04-01T17:05:46.556Z,85.68
2023-04-01T17:08:22.112Z,86.35
2023-04-01T17:10:54.349Z,86.22
2023-04-01T17:13:33.456Z,86.38
2023-04-01T17:16:12.573Z,86.82
2023-04-01T17:18:46.900Z,86.91
2023-04-01T17:21:20.108Z,87.07
2023-04-01T17:23:51.903Z,86.55
2023-04-01T17:26:29.533Z,87.13
2023-04-01T17:29:00.595Z,87.16
2023-04-01T17:31:46.041Z,87.19
2023-04-01T17:34:37.836Z,87.13
2023-04-01T17:37:16.129Z,86.93
2023-04-01T17:39:51.039Z,87.33
2023-04-01T17:42:24.945Z,87.38
2023-04-01T17:44:58.948Z,87.40
2023-04-01T17:47:46.523Z,87.45
2023-04-01T17:50:25.189Z,87.43
2023-04-01T17:53:07.924Z,87.32
2023-04-01T17:55:47.347Z,87.38
2023-04-01T17:58:20.615Z,87.85
2023-04-01T18:01:14.323Z,87.47
2023-04-01T18:04:05.045Z,87.61
2023-04-01T18:06:38.348Z,87.23
2023-04-01T18:09:17.166Z,87.11
2023-04-01T18:11:55.844Z,87.48
2023-04-01T18:14:38.580Z,87.20
2023-04-01T18:17:25.445Z,87.23
2023-04-01T18:20:04.667Z,87.58
2023-04-01T18:22:39.809Z,87.63
2023-04-01T18:25:16.685Z,87.49
2023-04-01T18:27:47.091Z,87.66
2023-04-01T18:30:18.074Z,87.36
2023-04-01T18:32:51.213Z,87.32
2023-04-01T18:35:27.118Z,87.40
2023-04-01T18:37:58.409Z,87.46
2023-04-01T18:40:28.683Z,87.00
2023-04-01T18:43:03.931Z,87.25
2023-04-01T18:45:36.324Z,86.82
2023-04-01T18:48:13.547Z,87.21
2023-04-01T18:50:45.542Z,87.00
2023-04-01T18:53:20.624Z,87.21
2023-04-01T18:55:50.044Z,87.25
2023-04-01T18:58:28.201Z,87.42
2023-04-01T19:01:05.918Z,86.99
2023-04-01T19:03:37.274Z,87.36
2023-04-01T19:06:18.116Z,87.07
2023-04-01T19:08:46.566Z,87.48
2023-04-01T19:11:20.870Z,87.45
2023-04-01T19:13:55.048Z,87.37
2023-04-01T19:16:31.189Z,86.96
2023-04-01T19:19:13.178Z,87.22
2023-04-01T19:21:44.472Z,87.03
2023-04-01T19:24:23.621Z,87.34
2023-04-01T19:26:55.436Z,87.05
2023-04-01T19:29:32.712Z,87.39
2023-04-01T19:32:12.641Z,87.43
2023-04-01T19:34:49.385Z,87.19
2023-04-01T19:37:27.536Z,87.22
2023-04-01T19:40:04.780Z,87.50
2023-04-01T19:42:36.890Z,87.17
2023-04-01T19:45:13.748Z,87.43
2023-04-01T19:47:47.842Z,87.30
2023-04-01T19:50:27.482Z,87.32
2023-04-01T19:52:57.866Z,87.21
2023-04-01T19:55:35.843Z,87.15
2023-04-01T19:58:08.462Z,87.59
2023-04-01T20:00:38.867Z,87.63
2023-04-01T20:03:22.628Z,87.63
2023-04-01T20:05:53.472Z,87.40
2023-04-01T20:08:27.823Z,87.17
2023-04-01T20:11:06.130Z,87.22
2023-04-01T20:13:44.791Z,87.25
2023-04-01T20:16:16.043Z,87.15
2023-04-01T20:18:50.379Z,87.23
2023-04-01T20:21:29.648Z,87.16
2023-04-01T20:24:00.516Z,87.62
2023-04-01T20:26:32.538Z,87.52
2023-04-01T20:29:10.443Z,87.73
2023-04-01T20:31:39.695Z,87.52
2023-04-01T20:34:24.016Z,87.81
2023-04-01T20:37:01.410Z,87.98
2023-04-01T20:40:02.080Z,87.83
2023-04-01T20:42:37.003Z,88.15
2023-04-01T20:45:16.868Z,88.10
2023-04-01T20:47:58.235Z,88.17
2023-04-01T20:50:31.680Z,88.20
2023-04-01T20:53:06.058Z,88.07
2023-04-01T20:56:01.084Z,88.28
2023-04-01T20:58:34.343Z,88.44
2023-04-01T21:01:13.257Z,88.56
2023-04-01T21:03:48.612Z,88.54
2023-04-01T21:06:43.664Z,88.59
2023-04-01T21:09:25.779Z,88.56
2023-04-01T21:11:57.856Z,88.39
2023-04-01T21:14:46.806Z,88.46
2023-04-01T21:17:20.242Z,88.51
2023-04-01T21:20:00.462Z,88.77
2023-04-01T21:22:42.051Z,88.37
2023-04-01T21:25:28.572Z,89.03
2023-04-01T21:28:06.600Z,88.95
2023-04-01T21:30:42.738Z,88.88
2023-04-01T21:33:24.216Z,88.86
2023-04-01T21:35:58.904Z,88.91
2023-04-01T21:38:38.697Z,88.80
2023-04-01T21:41:17.096Z,88.84
2023-04-01T21:44:19.855Z,88.87
2023-04-01T21:47:17.354Z,88.98
2023-04-01T21:50:21.926Z,88.88
2023-04-01T21:53:27.571Z,88.80
2023-04-01T21:56:55.164Z,88.64
2023-04-01T21:59:43.170Z,88.63
2023-04-01T22:02:35.608Z,88.42
2023-04-01T22:05:09.573Z,88.38
2023-04-01T22:07:40.722Z,88.48
2023-04-01T22:10:18.897Z,88.63
2023-04-01T22:12:49.218Z,88.64
2023-04-01T22:15:23.279Z,88.79
2023-04-01T22:17:56.077Z,88.74
2023-04-01T22:20:30.215Z,88.83
2023-04-01T22:23:09.204Z,89.05
2023-04-01T22:25:42.094Z,88.99
2023-04-01T22:28:13.108Z,88.95
2023-04-01T22:30:44.771Z,89.02
2023-04-01T22:33:17.692Z,89.04
2023-04-01T22:35:50.938Z,88.94
2023-04-01T22:38:28.438Z,89.12
2023-04-01T22:41:00.187Z,89.35
2023-04-01T22:43:34.645Z,89.16
2023-04-01T22:46:22.678Z,89.08
2023-04-01T22:48:55.143Z,89.06
2023-04-01T22:51:25.239Z,88.79
2023-04-01T22:54:03.677Z,88.95
2023-04-01T22:56:35.075Z,88.92
2023-04-01T22:59:08.597Z,89.11
2023-04-01T23:01:44.074Z,89.11
2023-04-01T23:04:18.850Z,89.06
2023-04-01T23:06:50.923Z,89.12
2023-04-01T23:09:20.525Z,89.00
2023-04-01T23:11:52.997Z,89.10
2023-04-01T23:14:48.684Z,89.19
2023-04-01T23:17:30.411Z,89.40
2023-04-01T23:20:06.855Z,89.07
2023-04-01T23:22:37.975Z,88.94
2023-04-01T23:25:17.720Z,89.07
2023-04-01T23:27:48.792Z,89.05
2023-04-01T23:30:50.904Z,89.37
2023-04-01T23:33:25.388Z,88.96
2023-04-01T23:35:55.255Z,88.83
2023-04-01T23:38:24.868Z,88.73
2023-04-01T23:40:54.251Z,88.98
2023-04-01T23:43:26.532Z,88.71
2023-04-01T23:45:55.055Z,88.69
2023-04-01T23:48:28.682Z,88.65
2023-04-01T23:50:57.105Z,89.18
2023-04-01T23:53:27.052Z,88.72
2023-04-01T23:55:55.049Z,88.84
2023-04-01T23:58:27.022Z,88.49
